sensor_id;sensor_type;location;lat;lon;timestamp;temperature;humidity
21895;DHT22;11112;51.270;7.224;2024-02-15T00:00:45;11.50;99.90
21895;DHT22;11112;51.270;7.224;2024-02-15T00:03:38;11.50;99.90
21895;DHT22;11112;51.270;7.224;2024-02-15T00:06:34;11.50;99.90
21895;DHT22;11112;51.270;7.224;2024-02-15T00:09:26;11.50;99.90
21895;DHT22;11112;51.270;7.224;2024-02-15T00:12:23;11.60;99.90
21895;DHT22;11112;51.270;7.224;2024-02-15T00:15:14;11.60;99.90
21895;DHT22;11112;51.270;7.224;2024-02-15T00:18:06;11.60;99.90
21895;DHT22;11112;51.270;7.224;2024-02-15T00:20:57;11.60;99.90
21895;DHT22;11112;51.270;7.224;2024-02-15T00:23:54;11.60;99.90
21895;DHT22;11112;51.270;7.224;2024-02-15T00:26:52;11.60;99.90
21895;DHT22;11112;51.270;7.224;2024-02-15T00:29:30;11.50;99.90
21895;DHT22;11112;51.270;7.224;2024-02-15T00:32:10;11.60;99.90
21895;DHT22;11112;51.270;7.224;2024-02-15T00:34:59;11.60;99.90
21895;DHT22;11112;51.270;7.224;2024-02-15T00:37:48;11.60;99.90
21895;DHT22;11112;51.270;7.224;2024-02-15T00:40:42;11.60;99.90
21895;DHT22;11112;51.270;7.224;2024-02-15T00:43:33;11.60;99.90
21895;DHT22;11112;51.270;7.224;2024-02-15T00:46:24;11.60;99.90
21895;DHT22;11112;51.270;7.224;2024-02-15T00:49:17;11.60;99.90
21895;DHT22;11112;51.270;7.224;2024-02-15T00:52:11;11.60;99.90
21895;DHT22;11112;51.270;7.224;2024-02-15T00:54:57;11.60;99.90
21895;DHT22;11112;51.270;7.224;2024-02-15T00:58:02;11.60;99.90
21895;DHT22;11112;51.270;7.224;2024-02-15T01:00:56;11.60;99.90
21895;DHT22;11112;51.270;7.224;2024-02-15T01:03:43;11.60;99.90
21895;DHT22;11112;51.270;7.224;2024-02-15T01:06:35;11.70;99.90
21895;DHT22;11112;51.270;7.224;2024-02-15T01:09:27;11.60;99.90
21895;DHT22;11112;51.270;7.224;2024-02-15T01:12:17;11.60;99.90
21895;DHT22;11112;51.270;7.224;2024-02-15T01:15:11;11.70;99.90
21895;DHT22;11112;51.270;7.224;2024-02-15T01:18:01;11.70;99.90
21895;DHT22;11112;51.270;7.224;2024-02-15T01:20:51;11.60;99.90
21895;DHT22;11112;51.270;7.224;2024-02-15T01:23:49;11.70;99.90
21895;DHT22;11112;51.270;7.224;2024-02-15T01:26:32;11.70;99.90
21895;DHT22;11112;51.270;7.224;2024-02-15T01:29:07;11.60;99.90
21895;DHT22;11112;51.270;7.224;2024-02-15T01:32:02;11.70;99.90
21895;DHT22;11112;51.270;7.224;2024-02-15T01:34:51;11.70;99.90
21895;DHT22;11112;51.270;7.224;2024-02-15T01:37:43;11.70;99.90
21895;DHT22;11112;51.270;7.224;2024-02-15T01:40:35;11.70;99.90
21895;DHT22;11112;51.270;7.224;2024-02-15T01:43:34;11.70;99.90
21895;DHT22;11112;51.270;7.224;2024-02-15T01:46:28;11.70;99.90
21895;DHT22;11112;51.270;7.224;2024-02-15T01:49:12;11.70;99.90
21895;DHT22;11112;51.270;7.224;2024-02-15T01:52:05;11.70;99.90
21895;DHT22;11112;51.270;7.224;2024-02-15T01:54:54;11.70;99.90
21895;DHT22;11112;51.270;7.224;2024-02-15T01:57:45;11.70;99.90
21895;DHT22;11112;51.270;7.224;2024-02-15T02:00:57;11.70;99.90
21895;DHT22;11112;51.270;7.224;2024-02-15T02:03:47;11.70;99.90
21895;DHT22;11112;51.270;7.224;2024-02-15T02:06:44;11.70;99.90
21895;DHT22;11112;51.270;7.224;2024-02-15T02:09:38;11.70;99.90
21895;DHT22;11112;51.270;7.224;2024-02-15T02:12:39;11.70;99.90
21895;DHT22;11112;51.270;7.224;2024-02-15T02:15:32;11.70;99.90
21895;DHT22;11112;51.270;7.224;2024-02-15T02:18:21;11.70;99.90
21895;DHT22;11112;51.270;7.224;2024-02-15T02:21:30;11.70;99.90
21895;DHT22;11112;51.270;7.224;2024-02-15T02:24:33;11.70;99.90
21895;DHT22;11112;51.270;7.224;2024-02-15T02:27:35;11.70;99.90
21895;DHT22;11112;51.270;7.224;2024-02-15T02:30:25;11.70;99.90
21895;DHT22;11112;51.270;7.224;2024-02-15T02:33:21;11.70;99.90
21895;DHT22;11112;51.270;7.224;2024-02-15T02:36:08;11.70;99.90
21895;DHT22;11112;51.270;7.224;2024-02-15T02:39:07;11.70;99.90
21895;DHT22;11112;51.270;7.224;2024-02-15T02:41:59;11.70;99.90
21895;DHT22;11112;51.270;7.224;2024-02-15T02:44:55;11.70;99.90
21895;DHT22;11112;51.270;7.224;2024-02-15T02:47:39;11.70;99.90
21895;DHT22;11112;51.270;7.224;2024-02-15T02:50:23;11.70;99.90
21895;DHT22;11112;51.270;7.224;2024-02-15T02:53:12;11.60;99.90
21895;DHT22;11112;51.270;7.224;2024-02-15T02:55:57;11.60;99.90
21895;DHT22;11112;51.270;7.224;2024-02-15T02:58:46;11.60;99.90
21895;DHT22;11112;51.270;7.224;2024-02-15T03:01:46;11.60;99.90
21895;DHT22;11112;51.270;7.224;2024-02-15T03:04:41;11.60;99.90
21895;DHT22;11112;51.270;7.224;2024-02-15T03:07:31;11.60;99.90
21895;DHT22;11112;51.270;7.224;2024-02-15T03:10:23;11.60;99.90
21895;DHT22;11112;51.270;7.224;2024-02-15T03:13:15;11.60;99.90
21895;DHT22;11112;51.270;7.224;2024-02-15T03:15:56;11.60;99.90
21895;DHT22;11112;51.270;7.224;2024-02-15T03:18:37;11.60;99.90
21895;DHT22;11112;51.270;7.224;2024-02-15T03:21:30;11.60;99.90
21895;DHT22;11112;51.270;7.224;2024-02-15T03:24:22;11.60;99.90
21895;DHT22;11112;51.270;7.224;2024-02-15T03:27:08;11.60;99.90
21895;DHT22;11112;51.270;7.224;2024-02-15T03:30:07;11.70;99.90
21895;DHT22;11112;51.270;7.224;2024-02-15T03:33:00;11.60;99.90
21895;DHT22;11112;51.270;7.224;2024-02-15T03:35:43;11.70;99.90
21895;DHT22;11112;51.270;7.224;2024-02-15T03:38:37;11.60;99.90
21895;DHT22;11112;51.270;7.224;2024-02-15T03:41:43;11.60;99.90
21895;DHT22;11112;51.270;7.224;2024-02-15T03:44:32;11.60;99.90
21895;DHT22;11112;51.270;7.224;2024-02-15T03:47:23;11.60;99.90
21895;DHT22;11112;51.270;7.224;2024-02-15T03:50:11;11.60;99.90
21895;DHT22;11112;51.270;7.224;2024-02-15T03:52:55;11.60;99.90
21895;DHT22;11112;51.270;7.224;2024-02-15T03:55:48;11.60;99.90
21895;DHT22;11112;51.270;7.224;2024-02-15T03:58:39;11.60;99.90
21895;DHT22;11112;51.270;7.224;2024-02-15T04:01:26;11.60;99.90
21895;DHT22;11112;51.270;7.224;2024-02-15T04:04:24;11.60;99.90
21895;DHT22;11112;51.270;7.224;2024-02-15T04:07:14;11.60;99.90
21895;DHT22;11112;51.270;7.224;2024-02-15T04:10:15;11.60;99.90
21895;DHT22;11112;51.270;7.224;2024-02-15T04:13:03;11.60;99.90
21895;DHT22;11112;51.270;7.224;2024-02-15T04:15:59;11.60;99.90
21895;DHT22;11112;51.270;7.224;2024-02-15T04:18:52;11.60;99.90
21895;DHT22;11112;51.270;7.224;2024-02-15T04:21:41;11.50;99.90
21895;DHT22;11112;51.270;7.224;2024-02-15T04:24:31;11.50;99.90
21895;DHT22;11112;51.270;7.224;2024-02-15T04:27:23;11.60;99.90
21895;DHT22;11112;51.270;7.224;2024-02-15T04:30:29;11.60;99.90
21895;DHT22;11112;51.270;7.224;2024-02-15T04:33:30;11.60;99.90
21895;DHT22;11112;51.270;7.224;2024-02-15T04:36:16;11.60;99.90
21895;DHT22;11112;51.270;7.224;2024-02-15T04:39:09;11.60;99.90
21895;DHT22;11112;51.270;7.224;2024-02-15T04:41:51;11.60;99.90
21895;DHT22;11112;51.270;7.224;2024-02-15T04:44:30;11.50;99.90
21895;DHT22;11112;51.270;7.224;2024-02-15T04:47:21;11.60;99.90
21895;DHT22;11112;51.270;7.224;2024-02-15T04:49:56;11.60;99.90
21895;DHT22;11112;51.270;7.224;2024-02-15T04:53:12;11.60;99.90
21895;DHT22;11112;51.270;7.224;2024-02-15T04:56:09;11.60;99.90
21895;DHT22;11112;51.270;7.224;2024-02-15T04:59:02;11.60;99.90
21895;DHT22;11112;51.270;7.224;2024-02-15T05:02:05;11.60;99.90
21895;DHT22;11112;51.270;7.224;2024-02-15T05:04:55;11.60;99.90
21895;DHT22;11112;51.270;7.224;2024-02-15T05:07:51;11.70;99.90
21895;DHT22;11112;51.270;7.224;2024-02-15T05:10:44;11.60;99.90
21895;DHT22;11112;51.270;7.224;2024-02-15T05:13:32;11.60;99.90
21895;DHT22;11112;51.270;7.224;2024-02-15T05:16:21;11.60;99.90
21895;DHT22;11112;51.270;7.224;2024-02-15T05:19:13;11.60;99.90
21895;DHT22;11112;51.270;7.224;2024-02-15T05:21:54;11.60;99.90
21895;DHT22;11112;51.270;7.224;2024-02-15T05:24:39;11.70;99.90
21895;DHT22;11112;51.270;7.224;2024-02-15T05:27:25;11.60;99.90
21895;DHT22;11112;51.270;7.224;2024-02-15T05:30:17;11.60;99.90
21895;DHT22;11112;51.270;7.224;2024-02-15T05:33:22;11.60;99.90
21895;DHT22;11112;51.270;7.224;2024-02-15T05:36:19;11.70;99.90
21895;DHT22;11112;51.270;7.224;2024-02-15T05:39:10;11.60;99.90
21895;DHT22;11112;51.270;7.224;2024-02-15T05:42:01;11.60;99.90
21895;DHT22;11112;51.270;7.224;2024-02-15T05:44:50;11.60;99.90
21895;DHT22;11112;51.270;7.224;2024-02-15T05:47:31;11.70;99.90
21895;DHT22;11112;51.270;7.224;2024-02-15T05:50:09;11.60;99.90
21895;DHT22;11112;51.270;7.224;2024-02-15T05:52:54;11.60;99.90
21895;DHT22;11112;51.270;7.224;2024-02-15T05:55:29;11.60;99.90
21895;DHT22;11112;51.270;7.224;2024-02-15T05:58:18;11.60;99.90
21895;DHT22;11112;51.270;7.224;2024-02-15T06:01:04;11.70;99.90
21895;DHT22;11112;51.270;7.224;2024-02-15T06:04:14;11.60;99.90
21895;DHT22;11112;51.270;7.224;2024-02-15T06:07:08;11.60;99.90
21895;DHT22;11112;51.270;7.224;2024-02-15T06:09:49;11.60;99.90
21895;DHT22;11112;51.270;7.224;2024-02-15T06:12:37;11.70;99.90
21895;DHT22;11112;51.270;7.224;2024-02-15T06:15:32;11.60;99.90
21895;DHT22;11112;51.270;7.224;2024-02-15T06:18:20;11.60;99.90
21895;DHT22;11112;51.270;7.224;2024-02-15T06:21:05;11.60;99.90
21895;DHT22;11112;51.270;7.224;2024-02-15T06:23:57;11.60;99.90
21895;DHT22;11112;51.270;7.224;2024-02-15T06:26:50;11.70;99.90
21895;DHT22;11112;51.270;7.224;2024-02-15T06:29:47;11.60;99.90
21895;DHT22;11112;51.270;7.224;2024-02-15T06:32:47;11.70;99.90
21895;DHT22;11112;51.270;7.224;2024-02-15T06:35:48;11.70;99.90
21895;DHT22;11112;51.270;7.224;2024-02-15T06:38:48;11.70;99.90
21895;DHT22;11112;51.270;7.224;2024-02-15T06:42:01;11.70;99.90
21895;DHT22;11112;51.270;7.224;2024-02-15T06:44:53;11.70;99.90
21895;DHT22;11112;51.270;7.224;2024-02-15T06:47:45;11.70;99.90
21895;DHT22;11112;51.270;7.224;2024-02-15T06:50:42;11.70;99.90
21895;DHT22;11112;51.270;7.224;2024-02-15T06:53:32;11.70;99.90
21895;DHT22;11112;51.270;7.224;2024-02-15T06:56:19;11.70;99.90
21895;DHT22;11112;51.270;7.224;2024-02-15T06:59:02;11.70;99.90
21895;DHT22;11112;51.270;7.224;2024-02-15T07:01:51;11.70;99.90
21895;DHT22;11112;51.270;7.224;2024-02-15T07:04:44;11.70;99.90
21895;DHT22;11112;51.270;7.224;2024-02-15T07:07:26;11.70;99.90
21895;DHT22;11112;51.270;7.224;2024-02-15T07:10:16;11.70;99.90
21895;DHT22;11112;51.270;7.224;2024-02-15T07:13:10;11.70;99.90
21895;DHT22;11112;51.270;7.224;2024-02-15T07:16:16;11.70;99.90
21895;DHT22;11112;51.270;7.224;2024-02-15T07:19:09;11.70;99.90
21895;DHT22;11112;51.270;7.224;2024-02-15T07:22:04;11.70;99.90
21895;DHT22;11112;51.270;7.224;2024-02-15T07:24:54;11.70;99.90
21895;DHT22;11112;51.270;7.224;2024-02-15T07:27:45;11.70;99.90
21895;DHT22;11112;51.270;7.224;2024-02-15T07:30:32;11.70;99.90
21895;DHT22;11112;51.270;7.224;2024-02-15T07:33:14;11.70;99.90
21895;DHT22;11112;51.270;7.224;2024-02-15T07:36:23;11.70;99.90
21895;DHT22;11112;51.270;7.224;2024-02-15T07:39:21;11.70;99.90
21895;DHT22;11112;51.270;7.224;2024-02-15T07:42:08;11.70;99.90
21895;DHT22;11112;51.270;7.224;2024-02-15T07:44:46;11.70;99.90
21895;DHT22;11112;51.270;7.224;2024-02-15T07:47:42;11.70;99.90
21895;DHT22;11112;51.270;7.224;2024-02-15T07:50:50;11.70;99.90
21895;DHT22;11112;51.270;7.224;2024-02-15T07:53:42;11.70;99.90
21895;DHT22;11112;51.270;7.224;2024-02-15T07:56:32;11.70;99.90
21895;DHT22;11112;51.270;7.224;2024-02-15T07:59:21;11.70;99.90
21895;DHT22;11112;51.270;7.224;2024-02-15T08:02:15;11.70;99.90
21895;DHT22;11112;51.270;7.224;2024-02-15T08:05:07;11.70;99.90
21895;DHT22;11112;51.270;7.224;2024-02-15T08:08:03;11.70;99.90
21895;DHT22;11112;51.270;7.224;2024-02-15T08:10:56;11.70;99.90
21895;DHT22;11112;51.270;7.224;2024-02-15T08:13:58;11.80;99.90
21895;DHT22;11112;51.270;7.224;2024-02-15T08:16:49;11.70;99.90
21895;DHT22;11112;51.270;7.224;2024-02-15T08:19:32;11.80;99.90
21895;DHT22;11112;51.270;7.224;2024-02-15T08:22:24;11.70;99.90
21895;DHT22;11112;51.270;7.224;2024-02-15T08:25:05;11.80;99.90
21895;DHT22;11112;51.270;7.224;2024-02-15T08:27:58;11.80;99.90
21895;DHT22;11112;51.270;7.224;2024-02-15T08:30:49;11.80;99.90
21895;DHT22;11112;51.270;7.224;2024-02-15T08:33:46;11.80;99.90
21895;DHT22;11112;51.270;7.224;2024-02-15T08:36:44;11.70;99.90
21895;DHT22;11112;51.270;7.224;2024-02-15T08:39:31;11.80;99.90
21895;DHT22;11112;51.270;7.224;2024-02-15T08:42:30;11.80;99.90
21895;DHT22;11112;51.270;7.224;2024-02-15T08:45:30;11.70;99.90
21895;DHT22;11112;51.270;7.224;2024-02-15T08:48:23;11.80;99.90
21895;DHT22;11112;51.270;7.224;2024-02-15T08:51:33;11.80;99.90
21895;DHT22;11112;51.270;7.224;2024-02-15T08:54:24;11.80;99.90
21895;DHT22;11112;51.270;7.224;2024-02-15T08:57:18;11.80;99.90
21895;DHT22;11112;51.270;7.224;2024-02-15T09:00:20;11.80;99.90
21895;DHT22;11112;51.270;7.224;2024-02-15T09:03:14;11.80;99.90
21895;DHT22;11112;51.270;7.224;2024-02-15T09:06:04;11.80;99.90
21895;DHT22;11112;51.270;7.224;2024-02-15T09:09:04;11.80;99.90
21895;DHT22;11112;51.270;7.224;2024-02-15T09:12:02;11.80;99.90
21895;DHT22;11112;51.270;7.224;2024-02-15T09:15:01;11.80;99.90
21895;DHT22;11112;51.270;7.224;2024-02-15T09:17:51;11.80;99.90
21895;DHT22;11112;51.270;7.224;2024-02-15T09:20:48;11.80;99.90
21895;DHT22;11112;51.270;7.224;2024-02-15T09:23:40;11.80;99.90
21895;DHT22;11112;51.270;7.224;2024-02-15T09:26:30;11.80;99.90
21895;DHT22;11112;51.270;7.224;2024-02-15T09:29:22;11.80;99.90
21895;DHT22;11112;51.270;7.224;2024-02-15T09:32:20;11.80;99.90
21895;DHT22;11112;51.270;7.224;2024-02-15T09:35:17;11.80;99.90
21895;DHT22;11112;51.270;7.224;2024-02-15T09:38:16;11.80;99.90
21895;DHT22;11112;51.270;7.224;2024-02-15T09:41:10;11.80;99.90
21895;DHT22;11112;51.270;7.224;2024-02-15T09:43:57;11.80;99.90
21895;DHT22;11112;51.270;7.224;2024-02-15T09:46:51;11.80;99.90
21895;DHT22;11112;51.270;7.224;2024-02-15T09:49:58;11.90;99.90
21895;DHT22;11112;51.270;7.224;2024-02-15T09:52:55;11.90;99.90
21895;DHT22;11112;51.270;7.224;2024-02-15T09:55:48;11.90;99.90
21895;DHT22;11112;51.270;7.224;2024-02-15T09:58:41;11.90;99.90
21895;DHT22;11112;51.270;7.224;2024-02-15T10:01:36;11.90;99.90
21895;DHT22;11112;51.270;7.224;2024-02-15T10:04:28;11.90;99.90
21895;DHT22;11112;51.270;7.224;2024-02-15T10:07:26;11.90;99.90
21895;DHT22;11112;51.270;7.224;2024-02-15T10:10:27;11.90;99.90
21895;DHT22;11112;51.270;7.224;2024-02-15T10:13:28;11.90;99.90
21895;DHT22;11112;51.270;7.224;2024-02-15T10:16:26;12.00;99.90
21895;DHT22;11112;51.270;7.224;2024-02-15T10:19:25;12.00;99.90
21895;DHT22;11112;51.270;7.224;2024-02-15T10:22:24;12.00;99.90
21895;DHT22;11112;51.270;7.224;2024-02-15T10:25:38;12.00;99.90
21895;DHT22;11112;51.270;7.224;2024-02-15T10:28:32;12.10;99.90
21895;DHT22;11112;51.270;7.224;2024-02-15T10:31:32;12.10;99.90
21895;DHT22;11112;51.270;7.224;2024-02-15T10:34:25;12.10;99.90
21895;DHT22;11112;51.270;7.224;2024-02-15T10:37:26;12.10;99.90
21895;DHT22;11112;51.270;7.224;2024-02-15T10:40:16;12.10;99.90
21895;DHT22;11112;51.270;7.224;2024-02-15T10:43:12;12.20;99.90
21895;DHT22;11112;51.270;7.224;2024-02-15T10:46:04;12.20;99.90
21895;DHT22;11112;51.270;7.224;2024-02-15T10:48:55;12.20;99.90
21895;DHT22;11112;51.270;7.224;2024-02-15T10:51:56;12.20;99.90
21895;DHT22;11112;51.270;7.224;2024-02-15T10:54:59;12.20;99.90
21895;DHT22;11112;51.270;7.224;2024-02-15T10:57:57;12.30;99.90
21895;DHT22;11112;51.270;7.224;2024-02-15T11:00:50;12.20;99.90
21895;DHT22;11112;51.270;7.224;2024-02-15T11:03:42;12.30;99.90
21895;DHT22;11112;51.270;7.224;2024-02-15T11:06:40;12.30;99.90
21895;DHT22;11112;51.270;7.224;2024-02-15T11:09:30;12.30;99.90
21895;DHT22;11112;51.270;7.224;2024-02-15T11:12:21;12.30;99.90
21895;DHT22;11112;51.270;7.224;2024-02-15T11:14:59;12.30;99.90
21895;DHT22;11112;51.270;7.224;2024-02-15T11:17:54;12.30;99.90
21895;DHT22;11112;51.270;7.224;2024-02-15T11:20:57;12.40;99.90
21895;DHT22;11112;51.270;7.224;2024-02-15T11:23:49;12.40;99.90
21895;DHT22;11112;51.270;7.224;2024-02-15T11:26:51;12.40;99.90
21895;DHT22;11112;51.270;7.224;2024-02-15T11:30:04;12.40;99.90
21895;DHT22;11112;51.270;7.224;2024-02-15T11:32:58;12.40;99.90
21895;DHT22;11112;51.270;7.224;2024-02-15T11:36:17;12.40;99.90
21895;DHT22;11112;51.270;7.224;2024-02-15T11:39:41;12.50;99.90
21895;DHT22;11112;51.270;7.224;2024-02-15T11:42:35;12.50;99.90
21895;DHT22;11112;51.270;7.224;2024-02-15T11:45:31;12.50;99.90
21895;DHT22;11112;51.270;7.224;2024-02-15T11:48:30;12.50;99.90
21895;DHT22;11112;51.270;7.224;2024-02-15T11:51:33;12.60;99.90
21895;DHT22;11112;51.270;7.224;2024-02-15T11:54:36;12.60;99.90
21895;DHT22;11112;51.270;7.224;2024-02-15T11:57:21;12.60;99.90
21895;DHT22;11112;51.270;7.224;2024-02-15T12:00:12;12.60;99.90
21895;DHT22;11112;51.270;7.224;2024-02-15T12:03:34;12.60;99.90
21895;DHT22;11112;51.270;7.224;2024-02-15T12:06:33;12.70;99.90
21895;DHT22;11112;51.270;7.224;2024-02-15T12:09:32;12.70;99.90
21895;DHT22;11112;51.270;7.224;2024-02-15T12:12:22;12.70;99.90
21895;DHT22;11112;51.270;7.224;2024-02-15T12:15:17;12.70;99.90
21895;DHT22;11112;51.270;7.224;2024-02-15T12:18:28;12.70;99.90
21895;DHT22;11112;51.270;7.224;2024-02-15T12:21:33;12.80;99.90
21895;DHT22;11112;51.270;7.224;2024-02-15T12:24:25;12.80;99.90
21895;DHT22;11112;51.270;7.224;2024-02-15T12:27:16;12.90;99.90
21895;DHT22;11112;51.270;7.224;2024-02-15T12:29:59;12.80;99.90
21895;DHT22;11112;51.270;7.224;2024-02-15T12:32:51;12.90;99.90
21895;DHT22;11112;51.270;7.224;2024-02-15T12:36:09;12.90;99.90
21895;DHT22;11112;51.270;7.224;2024-02-15T12:39:06;12.90;99.90
21895;DHT22;11112;51.270;7.224;2024-02-15T12:42:08;13.00;99.90
21895;DHT22;11112;51.270;7.224;2024-02-15T12:44:59;13.00;99.90
21895;DHT22;11112;51.270;7.224;2024-02-15T12:47:51;13.00;99.90
21895;DHT22;11112;51.270;7.224;2024-02-15T12:50:42;13.00;99.90
21895;DHT22;11112;51.270;7.224;2024-02-15T12:53:34;13.00;99.90
21895;DHT22;11112;51.270;7.224;2024-02-15T12:56:21;13.00;99.90
21895;DHT22;11112;51.270;7.224;2024-02-15T12:59:19;13.10;99.90
21895;DHT22;11112;51.270;7.224;2024-02-15T13:02:18;13.10;99.90
21895;DHT22;11112;51.270;7.224;2024-02-15T13:05:14;13.10;99.90
21895;DHT22;11112;51.270;7.224;2024-02-15T13:08:03;13.10;99.90
21895;DHT22;11112;51.270;7.224;2024-02-15T13:10:55;13.10;99.90
21895;DHT22;11112;51.270;7.224;2024-02-15T13:13:50;13.10;99.90
21895;DHT22;11112;51.270;7.224;2024-02-15T13:16:42;13.10;99.90
21895;DHT22;11112;51.270;7.224;2024-02-15T13:19:35;13.10;99.90
21895;DHT22;11112;51.270;7.224;2024-02-15T13:22:26;13.10;99.90
21895;DHT22;11112;51.270;7.224;2024-02-15T13:25:20;13.10;99.90
21895;DHT22;11112;51.270;7.224;2024-02-15T13:28:17;13.10;99.90
21895;DHT22;11112;51.270;7.224;2024-02-15T13:31:18;13.10;99.90
21895;DHT22;11112;51.270;7.224;2024-02-15T13:34:11;13.10;99.90
21895;DHT22;11112;51.270;7.224;2024-02-15T13:37:05;13.10;99.90
21895;DHT22;11112;51.270;7.224;2024-02-15T13:39:58;13.20;99.90
21895;DHT22;11112;51.270;7.224;2024-02-15T13:42:57;13.20;99.90
21895;DHT22;11112;51.270;7.224;2024-02-15T13:45:54;13.20;99.90
21895;DHT22;11112;51.270;7.224;2024-02-15T13:48:49;13.20;99.90
21895;DHT22;11112;51.270;7.224;2024-02-15T13:51:40;13.20;99.90
21895;DHT22;11112;51.270;7.224;2024-02-15T13:54:31;13.20;99.90
21895;DHT22;11112;51.270;7.224;2024-02-15T13:57:27;13.20;99.90
21895;DHT22;11112;51.270;7.224;2024-02-15T14:00:17;13.20;99.90
21895;DHT22;11112;51.270;7.224;2024-02-15T14:03:17;13.20;99.90
21895;DHT22;11112;51.270;7.224;2024-02-15T14:06:09;13.20;99.90
21895;DHT22;11112;51.270;7.224;2024-02-15T14:09:02;13.20;99.90
21895;DHT22;11112;51.270;7.224;2024-02-15T14:11:55;13.20;99.90
21895;DHT22;11112;51.270;7.224;2024-02-15T14:14:47;13.20;99.90
21895;DHT22;11112;51.270;7.224;2024-02-15T14:17:39;13.30;99.90
21895;DHT22;11112;51.270;7.224;2024-02-15T14:20:38;13.30;99.90
21895;DHT22;11112;51.270;7.224;2024-02-15T14:23:33;13.30;99.90
21895;DHT22;11112;51.270;7.224;2024-02-15T14:26:36;13.20;99.90
21895;DHT22;11112;51.270;7.224;2024-02-15T14:29:29;13.20;99.90
21895;DHT22;11112;51.270;7.224;2024-02-15T14:32:37;13.30;99.90
21895;DHT22;11112;51.270;7.224;2024-02-15T14:35:51;13.30;99.90
21895;DHT22;11112;51.270;7.224;2024-02-15T14:38:44;13.30;99.90
21895;DHT22;11112;51.270;7.224;2024-02-15T14:41:36;13.30;99.90
21895;DHT22;11112;51.270;7.224;2024-02-15T14:44:26;13.30;99.90
21895;DHT22;11112;51.270;7.224;2024-02-15T14:47:26;13.20;99.90
21895;DHT22;11112;51.270;7.224;2024-02-15T14:50:19;13.20;99.90
21895;DHT22;11112;51.270;7.224;2024-02-15T14:53:16;13.20;99.90
21895;DHT22;11112;51.270;7.224;2024-02-15T14:56:07;13.30;99.90
21895;DHT22;11112;51.270;7.224;2024-02-15T14:58:57;13.30;99.90
21895;DHT22;11112;51.270;7.224;2024-02-15T15:01:48;13.30;99.90
21895;DHT22;11112;51.270;7.224;2024-02-15T15:04:48;13.30;99.90
21895;DHT22;11112;51.270;7.224;2024-02-15T15:07:52;13.30;99.90
21895;DHT22;11112;51.270;7.224;2024-02-15T15:10:57;13.30;99.90
21895;DHT22;11112;51.270;7.224;2024-02-15T15:13:52;13.30;99.90
21895;DHT22;11112;51.270;7.224;2024-02-15T15:16:30;13.30;99.90
21895;DHT22;11112;51.270;7.224;2024-02-15T15:19:21;13.30;99.90
21895;DHT22;11112;51.270;7.224;2024-02-15T15:22:14;13.30;99.90
21895;DHT22;11112;51.270;7.224;2024-02-15T15:25:07;13.40;99.90
21895;DHT22;11112;51.270;7.224;2024-02-15T15:28:05;13.30;99.90
21895;DHT22;11112;51.270;7.224;2024-02-15T15:31:00;13.30;99.90
21895;DHT22;11112;51.270;7.224;2024-02-15T15:33:53;13.30;99.90
21895;DHT22;11112;51.270;7.224;2024-02-15T15:36:31;13.30;99.90
21895;DHT22;11112;51.270;7.224;2024-02-15T15:39:26;13.30;99.90
21895;DHT22;11112;51.270;7.224;2024-02-15T15:42:17;13.30;99.90
21895;DHT22;11112;51.270;7.224;2024-02-15T15:45:16;13.30;99.90
21895;DHT22;11112;51.270;7.224;2024-02-15T15:48:09;13.30;99.90
21895;DHT22;11112;51.270;7.224;2024-02-15T15:51:05;13.30;99.90
21895;DHT22;11112;51.270;7.224;2024-02-15T15:53:57;13.30;99.90
21895;DHT22;11112;51.270;7.224;2024-02-15T15:56:49;13.30;99.90
21895;DHT22;11112;51.270;7.224;2024-02-15T15:59:44;13.30;99.90
21895;DHT22;11112;51.270;7.224;2024-02-15T16:02:40;13.30;99.90
21895;DHT22;11112;51.270;7.224;2024-02-15T16:05:33;13.30;99.90
21895;DHT22;11112;51.270;7.224;2024-02-15T16:08:24;13.30;99.90
21895;DHT22;11112;51.270;7.224;2024-02-15T16:11:25;13.30;99.90
21895;DHT22;11112;51.270;7.224;2024-02-15T16:14:18;13.30;99.90
21895;DHT22;11112;51.270;7.224;2024-02-15T16:17:25;13.30;99.90
21895;DHT22;11112;51.270;7.224;2024-02-15T16:20:09;13.30;99.90
21895;DHT22;11112;51.270;7.224;2024-02-15T16:23:05;13.30;99.90
21895;DHT22;11112;51.270;7.224;2024-02-15T16:26:05;13.30;99.90
21895;DHT22;11112;51.270;7.224;2024-02-15T16:29:01;13.30;99.90
21895;DHT22;11112;51.270;7.224;2024-02-15T16:31:52;13.20;99.90
21895;DHT22;11112;51.270;7.224;2024-02-15T16:34:55;13.30;99.90
21895;DHT22;11112;51.270;7.224;2024-02-15T16:37:47;13.30;99.90
21895;DHT22;11112;51.270;7.224;2024-02-15T16:40:26;13.30;99.90
21895;DHT22;11112;51.270;7.224;2024-02-15T16:43:18;13.30;99.90
21895;DHT22;11112;51.270;7.224;2024-02-15T16:46:10;13.30;99.90
21895;DHT22;11112;51.270;7.224;2024-02-15T16:49:03;13.20;99.90
21895;DHT22;11112;51.270;7.224;2024-02-15T16:52:11;13.20;99.90
21895;DHT22;11112;51.270;7.224;2024-02-15T16:55:02;13.20;99.90
21895;DHT22;11112;51.270;7.224;2024-02-15T16:57:55;13.20;99.90
21895;DHT22;11112;51.270;7.224;2024-02-15T17:00:52;13.20;99.90
21895;DHT22;11112;51.270;7.224;2024-02-15T17:03:35;13.20;99.90
21895;DHT22;11112;51.270;7.224;2024-02-15T17:06:26;13.20;99.90
21895;DHT22;11112;51.270;7.224;2024-02-15T17:09:22;13.20;99.90
21895;DHT22;11112;51.270;7.224;2024-02-15T17:12:14;13.20;99.90
21895;DHT22;11112;51.270;7.224;2024-02-15T17:15:07;13.20;99.90
21895;DHT22;11112;51.270;7.224;2024-02-15T17:17:56;13.20;99.90
21895;DHT22;11112;51.270;7.224;2024-02-15T17:20:51;13.20;99.90
21895;DHT22;11112;51.270;7.224;2024-02-15T17:23:41;13.20;99.90
21895;DHT22;11112;51.270;7.224;2024-02-15T17:26:40;13.20;99.90
21895;DHT22;11112;51.270;7.224;2024-02-15T17:29:33;13.20;99.90
21895;DHT22;11112;51.270;7.224;2024-02-15T17:32:26;13.20;99.90
21895;DHT22;11112;51.270;7.224;2024-02-15T17:35:18;13.10;99.90
21895;DHT22;11112;51.270;7.224;2024-02-15T17:38:10;13.10;99.90
21895;DHT22;11112;51.270;7.224;2024-02-15T17:41:06;13.10;99.90
21895;DHT22;11112;51.270;7.224;2024-02-15T17:44:03;13.10;99.90
21895;DHT22;11112;51.270;7.224;2024-02-15T17:46:54;13.10;99.90
21895;DHT22;11112;51.270;7.224;2024-02-15T17:49:33;13.10;99.90
21895;DHT22;11112;51.270;7.224;2024-02-15T17:52:25;13.10;99.90
21895;DHT22;11112;51.270;7.224;2024-02-15T17:55:28;13.10;99.90
21895;DHT22;11112;51.270;7.224;2024-02-15T17:58:20;13.10;99.90
21895;DHT22;11112;51.270;7.224;2024-02-15T18:01:18;13.10;99.90
21895;DHT22;11112;51.270;7.224;2024-02-15T18:04:15;13.00;99.90
21895;DHT22;11112;51.270;7.224;2024-02-15T18:07:08;13.00;99.90
21895;DHT22;11112;51.270;7.224;2024-02-15T18:10:00;13.10;99.90
21895;DHT22;11112;51.270;7.224;2024-02-15T18:13:00;13.00;99.90
21895;DHT22;11112;51.270;7.224;2024-02-15T18:16:01;13.00;99.90